createdAt,value
2019-04-10T00:01:38.261Z,51.88
2019-04-10T00:04:28.142Z,51.86
2019-04-10T00:07:19.456Z,51.88
2019-04-10T00:10:09.739Z,51.89
2019-04-10T00:13:00.409Z,51.95
2019-04-10T00:15:50.813Z,51.91
2019-04-10T00:18:40.427Z,51.89
2019-04-10T00:21:29.739Z,51.88
2019-04-10T00:24:19.864Z,51.88
2019-04-10T00:27:10.389Z,51.87
2019-04-10T00:30:00.668Z,51.87
2019-04-10T00:32:50.742Z,51.97
2019-04-10T00:35:40.021Z,52.00
2019-04-10T00:38:29.584Z,52.05
2019-04-10T00:41:19.751Z,52.10
2019-04-10T00:44:09.191Z,52.08
2019-04-10T00:46:59.033Z,52.10
2019-04-10T00:49:48.580Z,51.95
2019-04-10T00:52:38.618Z,52.05
2019-04-10T00:55:28.823Z,52.07
2019-04-10T00:58:18.965Z,52.07
2019-04-10T01:01:09.638Z,52.10
2019-04-10T01:04:00.201Z,52.13
2019-04-10T01:06:50.508Z,52.15
2019-04-10T01:09:39.877Z,52.15
2019-04-10T01:12:29.795Z,52.04
2019-04-10T01:15:19.026Z,52.10
2019-04-10T01:18:09.193Z,52.14
2019-04-10T01:20:59.042Z,52.16
2019-04-10T01:23:48.938Z,52.13
2019-04-10T01:26:39.175Z,52.10
2019-04-10T01:29:29.231Z,52.16
2019-04-10T01:32:19.445Z,52.21
2019-04-10T01:35:09.900Z,52.12
2019-04-10T01:38:01.454Z,52.22
2019-04-10T01:40:51.169Z,52.27
2019-04-10T01:43:41.234Z,52.26
2019-04-10T01:46:33.634Z,52.37
2019-04-10T01:49:22.139Z,52.30
2019-04-10T01:52:12.950Z,52.31
2019-04-10T01:55:16.035Z,52.30
2019-04-10T01:57:58.886Z,52.33
2019-04-10T02:00:57.195Z,52.26
2019-04-10T02:03:46.596Z,52.35
2019-04-10T02:06:35.767Z,52.35
2019-04-10T02:09:25.741Z,52.35
2019-04-10T02:12:15.017Z,52.32
2019-04-10T02:15:04.858Z,52.26
2019-04-10T02:17:55.041Z,52.34
2019-04-10T02:20:45.204Z,52.30
2019-04-10T02:23:34.651Z,52.33
2019-04-10T02:26:23.821Z,52.37
2019-04-10T02:29:13.909Z,52.35
2019-04-10T02:32:04.161Z,52.38
2019-04-10T02:34:55.132Z,52.42
2019-04-10T02:37:44.870Z,52.37
2019-04-10T02:40:34.754Z,52.40
2019-04-10T02:43:23.820Z,52.35
2019-04-10T02:46:13.363Z,52.43
2019-04-10T02:49:04.162Z,52.40
2019-04-10T02:51:55.008Z,52.47
2019-04-10T02:54:46.030Z,52.50
2019-04-10T02:57:37.320Z,52.59
2019-04-10T03:00:28.292Z,52.55
2019-04-10T03:03:19.916Z,52.62
2019-04-10T03:06:11.377Z,52.63
2019-04-10T03:09:14.616Z,52.58
2019-04-10T03:11:51.946Z,52.61
2019-04-10T03:14:44.946Z,52.64
2019-04-10T03:17:33.256Z,52.67
2019-04-10T03:20:24.511Z,52.74
2019-04-10T03:23:13.580Z,52.79
2019-04-10T03:26:03.544Z,52.70
2019-04-10T03:28:56.263Z,52.80
2019-04-10T03:31:45.367Z,52.79
2019-04-10T03:34:40.593Z,52.82
2019-04-10T03:37:28.523Z,52.84
2019-04-10T03:40:18.127Z,52.85
2019-04-10T03:43:07.718Z,52.94
2019-04-10T03:45:57.290Z,52.91
2019-04-10T03:48:47.320Z,52.97
2019-04-10T03:51:37.304Z,53.04
2019-04-10T03:54:28.052Z,53.03
2019-04-10T03:57:20.562Z,53.07
2019-04-10T04:00:10.319Z,53.13
2019-04-10T04:03:00.239Z,53.18
2019-04-10T04:05:50.980Z,53.17
2019-04-10T04:08:40.268Z,53.25
2019-04-10T04:11:30.015Z,53.24
2019-04-10T04:14:19.808Z,53.33
2019-04-10T04:17:09.614Z,53.32
2019-04-10T04:19:58.868Z,53.38
2019-04-10T04:22:49.480Z,53.38
2019-04-10T04:25:40.555Z,53.46
2019-04-10T04:28:30.658Z,53.48
2019-04-10T04:31:19.788Z,53.47
2019-04-10T04:34:09.996Z,53.55
2019-04-10T04:37:00.410Z,53.56
2019-04-10T04:39:49.966Z,53.62
2019-04-10T04:42:40.709Z,53.59
2019-04-10T04:45:30.252Z,53.67
2019-04-10T04:48:19.487Z,53.71
2019-04-10T04:51:09.587Z,53.66
2019-04-10T04:53:59.109Z,53.60
2019-04-10T04:56:48.806Z,53.66
2019-04-10T04:59:38.606Z,53.77
2019-04-10T05:02:28.241Z,53.78
2019-04-10T05:05:18.497Z,53.86
2019-04-10T05:08:08.424Z,53.78
2019-04-10T05:10:58.238Z,53.99
2019-04-10T05:13:48.974Z,53.92
2019-04-10T05:16:38.226Z,53.91
2019-04-10T05:19:27.600Z,54.02
2019-04-10T05:22:16.880Z,53.97
2019-04-10T05:25:05.691Z,54.05
2019-04-10T05:27:55.354Z,54.08
2019-04-10T05:30:45.282Z,54.06
2019-04-10T05:33:36.616Z,54.11
2019-04-10T05:36:25.996Z,54.07
2019-04-10T05:39:15.389Z,54.19
2019-04-10T05:42:04.328Z,54.14
2019-04-10T05:44:53.761Z,54.26
2019-04-10T05:47:42.778Z,54.19
2019-04-10T05:50:32.112Z,54.26
2019-04-10T05:53:22.550Z,54.18
2019-04-10T05:56:12.348Z,54.31
2019-04-10T05:59:03.006Z,54.37
2019-04-10T06:01:52.821Z,54.47
2019-04-10T06:04:41.985Z,54.40
2019-04-10T06:07:31.550Z,54.50
2019-04-10T06:10:21.686Z,54.57
2019-04-10T06:13:12.816Z,54.58
2019-04-10T06:16:03.530Z,54.65
2019-04-10T06:18:53.609Z,55.32
2019-04-10T06:21:43.981Z,55.23
2019-04-10T06:24:33.241Z,55.03
2019-04-10T06:27:22.364Z,54.94
2019-04-10T06:30:12.141Z,54.84
2019-04-10T06:33:02.270Z,54.78
2019-04-10T06:35:53.054Z,54.72
2019-04-10T06:38:43.333Z,54.67
2019-04-10T06:41:33.303Z,54.63
2019-04-10T06:44:23.013Z,54.63
2019-04-10T06:47:12.578Z,54.56
2019-04-10T06:50:02.563Z,54.54
2019-04-10T06:52:54.833Z,54.51
2019-04-10T06:55:44.883Z,54.49
2019-04-10T06:58:34.671Z,54.53
2019-04-10T07:01:26.103Z,54.54
2019-04-10T07:04:15.496Z,54.38
2019-04-10T07:07:10.927Z,54.41
2019-04-10T07:09:57.565Z,54.24
2019-04-10T07:12:47.850Z,54.10
2019-04-10T07:15:37.792Z,54.07
2019-04-10T07:18:28.394Z,53.91
2019-04-10T07:21:17.643Z,53.69
2019-04-10T07:24:09.516Z,53.50
2019-04-10T07:27:02.248Z,53.08
2019-04-10T07:29:50.856Z,53.13
2019-04-10T07:32:43.333Z,53.21
2019-04-10T07:35:33.716Z,53.09
2019-04-10T07:38:21.715Z,52.82
2019-04-10T07:41:19.338Z,52.81
2019-04-10T07:44:03.798Z,52.67
2019-04-10T07:46:54.916Z,52.69
2019-04-10T07:49:46.202Z,52.37
2019-04-10T07:52:35.873Z,51.93
2019-04-10T07:55:25.684Z,51.78
2019-04-10T07:58:15.286Z,51.55
2019-04-10T08:01:05.315Z,51.34
2019-04-10T08:03:55.536Z,51.24
2019-04-10T08:06:46.758Z,50.96
2019-04-10T08:09:36.197Z,50.56
2019-04-10T08:12:37.576Z,50.39
2019-04-10T08:15:17.360Z,50.06
2019-04-10T08:18:06.640Z,49.79
2019-04-10T08:20:57.264Z,49.55
2019-04-10T08:23:48.286Z,49.30
2019-04-10T08:26:38.816Z,49.06
2019-04-10T08:29:28.263Z,48.73
2019-04-10T08:32:18.205Z,47.88
2019-04-10T08:35:09.107Z,47.53
2019-04-10T08:37:59.231Z,47.20
2019-04-10T08:40:48.559Z,46.71
2019-04-10T08:43:37.612Z,46.30
2019-04-10T08:46:26.664Z,45.88
2019-04-10T08:49:16.285Z,45.60
2019-04-10T08:52:06.273Z,45.03
2019-04-10T08:54:57.419Z,44.70
2019-04-10T08:57:47.084Z,44.63
2019-04-10T09:00:36.945Z,44.12
2019-04-10T09:03:26.765Z,43.63
2019-04-10T09:06:17.538Z,43.38
2019-04-10T09:09:08.127Z,42.72
2019-04-10T09:11:57.837Z,42.26
2019-04-10T09:14:47.621Z,42.21
2019-04-10T09:17:37.733Z,41.84
2019-04-10T09:20:26.850Z,41.14
2019-04-10T09:23:26.519Z,41.05
2019-04-10T09:26:08.027Z,40.91
2019-04-10T09:28:58.883Z,40.51
2019-04-10T09:31:49.001Z,40.14
2019-04-10T09:34:40.090Z,40.24
2019-04-10T09:37:31.012Z,39.71
2019-04-10T09:40:22.350Z,39.36
2019-04-10T09:43:15.687Z,39.64
2019-04-10T09:46:06.400Z,38.58
2019-04-10T09:48:56.188Z,38.52
2019-04-10T09:51:46.224Z,38.20
2019-04-10T09:54:38.233Z,38.08
2019-04-10T09:57:49.752Z,37.61
2019-04-10T10:00:41.257Z,37.71
2019-04-10T10:03:30.799Z,37.10
2019-04-10T10:06:29.574Z,34.62
2019-04-10T10:09:14.820Z,35.35
2019-04-10T10:12:04.507Z,35.87
2019-04-10T10:14:54.703Z,36.15
2019-04-10T10:17:44.548Z,35.62
2019-04-10T10:20:35.741Z,35.82
2019-04-10T10:23:27.598Z,35.82
2019-04-10T10:26:17.658Z,35.44
2019-04-10T10:29:09.324Z,35.39
2019-04-10T10:32:00.408Z,35.01
2019-04-10T10:34:50.558Z,35.11
2019-04-10T10:37:42.931Z,35.42
2019-04-10T10:40:32.369Z,35.70
2019-04-10T10:43:22.454Z,34.79
2019-04-10T10:46:13.454Z,34.84
2019-04-10T10:49:02.935Z,34.76
2019-04-10T10:51:53.323Z,34.53
2019-04-10T10:54:47.097Z,33.72
2019-04-10T10:57:37.539Z,33.77
2019-04-10T11:00:29.311Z,33.70
2019-04-10T11:03:22.448Z,33.70
2019-04-10T11:06:12.948Z,33.74
2019-04-10T11:09:08.343Z,33.80
2019-04-10T11:11:58.498Z,33.52
2019-04-10T11:14:48.335Z,28.38
2019-04-10T11:17:38.533Z,29.64
2019-04-10T11:20:28.498Z,30.44
2019-04-10T11:23:18.239Z,31.35
2019-04-10T11:26:08.479Z,31.13
2019-04-10T11:28:58.113Z,31.52
2019-04-10T11:31:47.568Z,30.97
2019-04-10T11:34:36.639Z,30.58
2019-04-10T11:37:36.683Z,30.55
2019-04-10T11:40:18.047Z,30.48
2019-04-10T11:43:07.872Z,30.99
2019-04-10T11:46:01.737Z,31.01
2019-04-10T11:48:49.306Z,31.01
2019-04-10T11:51:39.030Z,30.14
2019-04-10T11:54:30.428Z,30.54
2019-04-10T11:57:20.409Z,30.53
2019-04-10T12:03:08.321Z,29.82
2019-04-10T12:05:57.731Z,30.02
2019-04-10T12:09:13.273Z,30.31
2019-04-10T12:11:43.152Z,30.08
2019-04-10T12:14:39.578Z,30.51
2019-04-10T12:17:38.146Z,29.91
2019-04-10T12:20:33.267Z,29.72
2019-04-10T12:23:25.132Z,26.20
2019-04-10T12:26:14.473Z,24.80
2019-04-10T12:29:06.745Z,26.54
2019-04-10T12:31:56.680Z,27.21
2019-04-10T12:34:48.687Z,27.65
2019-04-10T12:37:41.175Z,28.10
2019-04-10T12:40:37.945Z,27.84
2019-04-10T12:43:34.796Z,27.30
2019-04-10T12:46:24.826Z,23.02
2019-04-10T12:49:17.081Z,23.41
2019-04-10T12:52:07.861Z,25.16
2019-04-10T12:54:58.322Z,26.47
2019-04-10T12:57:47.643Z,27.20
2019-04-10T13:00:36.792Z,27.29
2019-04-10T13:03:27.212Z,27.09
2019-04-10T13:06:17.968Z,27.42
2019-04-10T13:09:12.567Z,27.79
2019-04-10T13:12:00.630Z,28.29
2019-04-10T13:14:50.714Z,28.27
2019-04-10T13:17:40.777Z,27.80
2019-04-10T13:20:29.856Z,28.08
2019-04-10T13:23:19.128Z,27.29
2019-04-10T13:26:10.422Z,26.35
2019-04-10T13:28:59.963Z,27.41
2019-04-10T13:31:49.739Z,27.76
2019-04-10T13:34:39.664Z,27.80
2019-04-10T13:37:29.707Z,27.80
2019-04-10T13:40:19.454Z,27.66
2019-04-10T13:43:09.556Z,27.05
2019-04-10T13:46:00.446Z,27.40
2019-04-10T13:48:50.069Z,25.61
2019-04-10T13:51:39.310Z,27.29
2019-04-10T13:54:28.434Z,26.82
2019-04-10T13:57:18.155Z,26.32
2019-04-10T14:00:11.265Z,25.98
2019-04-10T14:03:01.741Z,27.76
2019-04-10T14:05:51.212Z,27.75
2019-04-10T14:09:04.695Z,27.64
2019-04-10T14:11:33.891Z,26.53
2019-04-10T14:14:24.336Z,26.29
2019-04-10T14:17:14.237Z,27.37
2019-04-10T14:20:04.680Z,27.21
2019-04-10T14:23:02.059Z,26.47
2019-04-10T14:26:22.589Z,27.24
2019-04-10T14:29:16.307Z,26.51
2019-04-10T14:32:09.161Z,25.56
2019-04-10T14:34:59.033Z,25.29
2019-04-10T14:37:48.345Z,25.21
2019-04-10T14:40:37.997Z,25.54
2019-04-10T14:43:28.732Z,25.48
2019-04-10T14:46:18.795Z,25.51
2019-04-10T14:49:09.024Z,25.59
2019-04-10T14:51:58.922Z,25.48
2019-04-10T14:54:48.662Z,25.17
2019-04-10T14:57:39.115Z,25.69
2019-04-10T15:00:36.962Z,25.76
2019-04-10T15:03:26.526Z,26.44
2019-04-10T15:06:15.476Z,26.35
2019-04-10T15:09:19.887Z,26.12
2019-04-10T15:11:59.358Z,26.04
2019-04-10T15:14:49.882Z,25.84
2019-04-10T15:17:40.280Z,25.42
2019-04-10T15:20:29.706Z,25.10
2019-04-10T15:23:18.831Z,25.26
2019-04-10T15:26:08.431Z,24.94
2019-04-10T15:28:58.308Z,25.24
2019-04-10T15:31:48.096Z,24.90
2019-04-10T15:34:37.484Z,25.52
2019-04-10T15:37:27.594Z,25.80
2019-04-10T15:40:22.803Z,25.38
2019-04-10T15:43:08.448Z,25.22
2019-04-10T15:45:57.804Z,25.31
2019-04-10T15:48:47.416Z,25.31
2019-04-10T15:51:36.976Z,25.37
2019-04-10T15:54:26.361Z,25.88
2019-04-10T15:57:16.466Z,26.02
2019-04-10T16:00:09.194Z,25.49
2019-04-10T16:02:58.999Z,25.64
2019-04-10T16:05:48.531Z,26.00
2019-04-10T16:08:38.592Z,25.95
2019-04-10T16:11:38.190Z,26.00
2019-04-10T16:14:30.204Z,26.23
2019-04-10T16:17:52.395Z,26.66
2019-04-10T16:20:43.103Z,25.93
2019-04-10T16:23:37.769Z,25.97
2019-04-10T16:26:27.618Z,26.06
2019-04-10T16:29:18.191Z,26.19
2019-04-10T16:32:08.991Z,26.32
2019-04-10T16:34:59.020Z,26.22
2019-04-10T16:37:49.435Z,26.32
2019-04-10T16:40:40.410Z,26.30
2019-04-10T16:43:30.637Z,26.25
2019-04-10T16:46:21.848Z,26.89
2019-04-10T16:49:11.301Z,26.82
2019-04-10T16:52:00.881Z,27.10
2019-04-10T16:54:51.431Z,26.81
2019-04-10T16:57:41.479Z,26.92
2019-04-10T17:00:31.212Z,26.98
2019-04-10T17:03:21.817Z,27.23
2019-04-10T17:06:12.300Z,28.02
2019-04-10T17:09:03.175Z,28.43
2019-04-10T17:11:53.832Z,29.26
2019-04-10T17:14:43.906Z,29.43
2019-04-10T17:17:33.358Z,29.80
2019-04-10T17:20:26.635Z,30.36
2019-04-10T17:23:16.493Z,31.10
2019-04-10T17:26:06.595Z,30.86
2019-04-10T17:28:56.654Z,31.34
2019-04-10T17:31:46.887Z,31.01
2019-04-10T17:34:35.918Z,31.89
2019-04-10T17:37:27.027Z,31.82
2019-04-10T17:40:27.347Z,32.30
2019-04-10T17:43:08.562Z,32.58
2019-04-10T17:45:58.664Z,32.61
2019-04-10T17:48:49.645Z,32.87
2019-04-10T17:51:39.745Z,33.28
2019-04-10T17:54:29.839Z,33.34
2019-04-10T17:57:21.076Z,33.65
2019-04-10T18:00:21.272Z,34.06
2019-04-10T18:03:10.950Z,34.53
2019-04-10T18:06:01.384Z,35.50
2019-04-10T18:08:51.477Z,35.28
2019-04-10T18:11:41.486Z,35.93
2019-04-10T18:14:31.366Z,35.82
2019-04-10T18:17:21.146Z,36.06
2019-04-10T18:20:11.573Z,35.95
2019-04-10T18:23:01.041Z,36.32
2019-04-10T18:25:51.878Z,36.57
2019-04-10T18:28:43.581Z,36.68
2019-04-10T18:31:32.957Z,37.11
2019-04-10T18:34:22.690Z,37.29
2019-04-10T18:37:18.690Z,37.45
2019-04-10T18:40:07.555Z,37.70
2019-04-10T18:43:00.690Z,37.96
2019-04-10T18:46:06.126Z,38.20
2019-04-10T18:48:49.521Z,38.39
2019-04-10T18:51:40.386Z,38.62
2019-04-10T18:54:36.003Z,38.81
2019-04-10T18:57:22.040Z,38.98
2019-04-10T19:00:44.582Z,39.09
2019-04-10T19:03:58.265Z,39.11
2019-04-10T19:06:53.375Z,39.38
2019-04-10T19:09:45.297Z,39.35
2019-04-10T19:12:34.824Z,39.63
2019-04-10T19:15:25.492Z,39.81
2019-04-10T19:18:15.375Z,39.98
2019-04-10T19:21:05.295Z,40.15
2019-04-10T19:23:55.643Z,40.33
2019-04-10T19:26:45.435Z,40.40
2019-04-10T19:29:35.548Z,40.62
2019-04-10T19:32:31.146Z,40.71
2019-04-10T19:35:21.407Z,40.83
2019-04-10T19:38:13.410Z,41.03
2019-04-10T19:41:04.663Z,41.07
2019-04-10T19:43:54.947Z,41.27
2019-04-10T19:46:45.928Z,41.26
2019-04-10T19:49:37.053Z,41.34
2019-04-10T19:52:28.555Z,41.51
2019-04-10T19:55:18.272Z,41.65
2019-04-10T19:58:08.148Z,41.80
2019-04-10T20:00:59.417Z,41.88
2019-04-10T20:03:50.054Z,41.99
2019-04-10T20:06:40.740Z,42.23
2019-04-10T20:09:30.532Z,42.16
2019-04-10T20:12:20.324Z,42.30
2019-04-10T20:15:10.011Z,42.45
2019-04-10T20:18:00.104Z,42.55
2019-04-10T20:20:51.155Z,42.55
2019-04-10T20:23:41.139Z,42.68
2019-04-10T20:26:31.461Z,42.71
2019-04-10T20:29:21.221Z,42.92
2019-04-10T20:32:12.612Z,42.85
2019-04-10T20:35:02.494Z,43.11
2019-04-10T20:37:51.289Z,43.14
2019-04-10T20:40:42.187Z,43.22
2019-04-10T20:43:32.683Z,43.36
2019-04-10T20:46:22.843Z,43.43
2019-04-10T20:49:12.137Z,43.42
2019-04-10T20:52:01.972Z,43.53
2019-04-10T20:54:51.723Z,43.63
2019-04-10T20:57:40.854Z,43.77
2019-04-10T21:00:34.504Z,43.86
2019-04-10T21:03:25.281Z,43.89
2019-04-10T21:06:15.505Z,43.96
2019-04-10T21:09:07.589Z,43.99
2019-04-10T21:12:03.833Z,44.01
2019-04-10T21:14:48.576Z,44.14
2019-04-10T21:17:37.558Z,44.24
2019-04-10T21:20:27.248Z,44.30
2019-04-10T21:23:17.159Z,44.35
2019-04-10T21:26:06.573Z,44.47
2019-04-10T21:28:55.818Z,44.36
2019-04-10T21:32:03.305Z,44.58
2019-04-10T21:34:51.617Z,44.63
2019-04-10T21:37:40.893Z,44.61
2019-04-10T21:40:30.670Z,44.77
2019-04-10T21:43:21.466Z,44.88
2019-04-10T21:46:12.106Z,44.90
2019-04-10T21:49:01.664Z,44.98
2019-04-10T21:51:51.623Z,44.88
2019-04-10T21:54:49.752Z,45.08
2019-04-10T21:57:32.034Z,45.08
2019-04-10T22:00:36.909Z,45.11
2019-04-10T22:03:25.964Z,45.22
2019-04-10T22:06:49.654Z,45.26
2019-04-10T22:09:52.930Z,45.35
2019-04-10T22:12:46.597Z,45.34
2019-04-10T22:15:37.435Z,45.40
2019-04-10T22:18:27.466Z,45.54
2019-04-10T22:21:18.598Z,45.64
2019-04-10T22:24:09.406Z,45.71
2019-04-10T22:26:58.758Z,45.64
2019-04-10T22:29:47.913Z,45.75
2019-04-10T22:32:37.272Z,45.84
2019-04-10T22:35:25.963Z,45.81
2019-04-10T22:38:15.455Z,45.84
2019-04-10T22:41:17.398Z,45.96
2019-04-10T22:43:57.076Z,45.93
2019-04-10T22:46:47.050Z,46.03
2019-04-10T22:49:37.337Z,45.86
2019-04-10T22:52:26.936Z,46.18
2019-04-10T22:55:17.690Z,46.21
2019-04-10T22:58:08.624Z,46.16
2019-04-10T23:00:58.033Z,46.28
2019-04-10T23:03:48.019Z,46.33
2019-04-10T23:06:37.554Z,46.28
2019-04-10T23:09:28.468Z,46.35
2019-04-10T23:12:18.265Z,46.43
2019-04-10T23:15:09.143Z,46.39
2019-04-10T23:17:59.242Z,46.45
2019-04-10T23:20:50.195Z,46.45
2019-04-10T23:23:41.101Z,46.55
2019-04-10T23:26:31.207Z,46.56
2019-04-10T23:29:20.792Z,46.56
2019-04-10T23:32:11.161Z,46.62
2019-04-10T23:35:01.257Z,46.66
2019-04-10T23:37:51.192Z,46.66
2019-04-10T23:40:41.007Z,46.63
2019-04-10T23:43:31.447Z,46.75
2019-04-10T23:46:22.221Z,46.80
2019-04-10T23:49:11.408Z,46.82
2019-04-10T23:52:01.297Z,46.82
2019-04-10T23:54:51.385Z,46.89
2019-04-10T23:57:41.190Z,46.90
